createdAt,value
2022-11-29T00:01:20.474Z,6.84
2022-11-29T00:03:47.268Z,6.85
2022-11-29T00:06:18.031Z,6.84
2022-11-29T00:08:45.447Z,6.84
2022-11-29T00:11:38.344Z,6.84
2022-11-29T00:14:10.004Z,6.84
2022-11-29T00:16:37.394Z,6.83
2022-11-29T00:19:04.129Z,6.82
2022-11-29T00:21:30.828Z,6.84
2022-11-29T00:23:57.643Z,6.84
2022-11-29T00:26:24.404Z,6.84
2022-11-29T00:28:51.488Z,6.86
2022-11-29T00:31:20.948Z,6.85
2022-11-29T00:33:48.134Z,6.86
2022-11-29T00:36:15.313Z,6.86
2022-11-29T00:38:42.516Z,6.86
2022-11-29T00:41:10.066Z,6.84
2022-11-29T00:43:36.856Z,6.85
2022-11-29T00:46:04.802Z,6.86
2022-11-29T00:48:32.273Z,6.86
2022-11-29T00:50:58.962Z,6.85
2022-11-29T00:53:25.579Z,6.83
2022-11-29T00:55:53.102Z,6.83
2022-11-29T00:58:20.931Z,6.84
2022-11-29T01:00:47.871Z,6.81
2022-11-29T01:03:15.427Z,6.79
2022-11-29T01:05:43.099Z,6.80
2022-11-29T01:08:11.148Z,6.79
2022-11-29T01:10:38.118Z,6.79
2022-11-29T01:13:05.431Z,6.80
2022-11-29T01:15:32.287Z,6.77
2022-11-29T01:17:59.401Z,6.76
2022-11-29T01:20:26.607Z,6.75
2022-11-29T01:22:53.516Z,6.76
2022-11-29T01:25:20.779Z,6.78
2022-11-29T01:27:47.469Z,6.78
2022-11-29T01:30:14.541Z,6.74
2022-11-29T01:32:42.073Z,6.76
2022-11-29T01:35:09.215Z,6.77
2022-11-29T01:37:36.104Z,6.78
2022-11-29T01:40:02.815Z,6.79
2022-11-29T01:42:29.482Z,6.80
2022-11-29T01:45:14.738Z,6.82
2022-11-29T01:47:45.334Z,6.82
2022-11-29T01:50:12.335Z,6.83
2022-11-29T01:52:39.405Z,6.81
2022-11-29T01:55:08.108Z,6.89
2022-11-29T01:57:36.760Z,6.90
2022-11-29T02:00:15.423Z,6.85
2022-11-29T02:02:58.917Z,6.88
2022-11-29T02:05:25.868Z,6.88
2022-11-29T02:07:55.102Z,6.87
2022-11-29T02:10:48.510Z,6.86
2022-11-29T02:13:38.005Z,6.93
2022-11-29T02:16:14.966Z,6.95
2022-11-29T02:18:59.633Z,7.00
2022-11-29T02:21:41.297Z,6.99
2022-11-29T02:24:20.062Z,6.97
2022-11-29T02:26:49.419Z,6.96
2022-11-29T02:29:29.823Z,6.93
2022-11-29T02:32:30.580Z,6.92
2022-11-29T02:35:19.859Z,6.92
2022-11-29T02:38:15.645Z,6.93
2022-11-29T02:41:00.899Z,6.92
2022-11-29T02:43:36.502Z,6.85
2022-11-29T02:46:21.410Z,6.82
2022-11-29T02:48:58.088Z,6.74
2022-11-29T02:51:47.009Z,6.77
2022-11-29T02:54:35.560Z,6.79
2022-11-29T02:57:14.645Z,6.79
2022-11-29T02:59:57.553Z,6.73
2022-11-29T03:02:42.676Z,6.72
2022-11-29T03:05:47.288Z,6.72
2022-11-29T03:08:23.734Z,6.78
2022-11-29T03:10:55.811Z,6.78
2022-11-29T03:13:33.371Z,6.79
2022-11-29T03:16:42.811Z,6.79
2022-11-29T03:19:39.007Z,6.85
2022-11-29T03:22:24.423Z,6.80
2022-11-29T03:24:56.968Z,6.87
2022-11-29T03:27:35.071Z,6.84
2022-11-29T03:30:06.558Z,6.79
2022-11-29T03:32:59.218Z,6.84
2022-11-29T03:35:35.290Z,6.83
2022-11-29T03:38:24.184Z,6.86
2022-11-29T03:41:19.005Z,6.82
2022-11-29T03:43:57.864Z,6.71
2022-11-29T03:46:40.558Z,6.67
2022-11-29T03:49:22.799Z,6.64
2022-11-29T03:52:07.919Z,6.63
2022-11-29T03:54:56.817Z,6.60
2022-11-29T03:57:49.719Z,6.61
2022-11-29T04:00:17.973Z,6.63
2022-11-29T04:02:53.646Z,6.63
2022-11-29T04:05:54.304Z,6.63
2022-11-29T04:08:50.486Z,6.64
2022-11-29T04:11:26.095Z,6.66
2022-11-29T04:14:24.966Z,6.64
2022-11-29T04:16:51.860Z,6.70
2022-11-29T04:19:37.601Z,6.79
2022-11-29T04:22:17.265Z,6.75
2022-11-29T04:25:05.833Z,6.76
2022-11-29T04:28:12.117Z,6.83
2022-11-29T04:30:58.812Z,6.91
2022-11-29T04:33:43.327Z,6.96
2022-11-29T04:36:44.970Z,6.91
2022-11-29T04:39:43.057Z,6.88
2022-11-29T04:42:27.656Z,6.95
2022-11-29T04:44:57.086Z,7.01
2022-11-29T04:48:22.139Z,7.00
2022-11-29T04:51:06.933Z,7.02
2022-11-29T04:53:50.930Z,7.00
2022-11-29T04:56:33.170Z,6.98
2022-11-29T04:59:13.608Z,7.04
2022-11-29T05:01:53.198Z,7.00
2022-11-29T05:04:31.946Z,7.07
2022-11-29T05:06:58.908Z,7.11
2022-11-29T05:09:44.260Z,7.12
2022-11-29T05:12:10.893Z,7.08
2022-11-29T05:17:56.659Z,7.07
2022-11-29T05:20:36.434Z,6.98
2022-11-29T05:23:30.125Z,7.02
2022-11-29T05:26:29.240Z,7.08
2022-11-29T05:29:03.113Z,7.13
2022-11-29T05:31:51.890Z,7.11
2022-11-29T05:34:42.945Z,7.04
2022-11-29T05:37:28.100Z,6.96
2022-11-29T05:40:13.321Z,6.99
2022-11-29T05:43:17.095Z,7.02
2022-11-29T05:45:50.655Z,7.04
2022-11-29T05:48:31.677Z,7.12
2022-11-29T05:51:29.379Z,7.16
2022-11-29T05:54:19.940Z,7.17
2022-11-29T05:57:14.666Z,7.19
2022-11-29T05:59:43.195Z,7.19
2022-11-29T06:02:40.904Z,7.20
2022-11-29T06:05:28.788Z,7.19
2022-11-29T06:08:10.705Z,7.21
2022-11-29T06:10:41.737Z,7.26
2022-11-29T06:13:33.015Z,7.21
2022-11-29T06:16:29.884Z,7.16
2022-11-29T06:19:16.379Z,7.12
2022-11-29T06:22:00.159Z,7.13
2022-11-29T06:24:53.077Z,7.13
2022-11-29T06:27:44.088Z,7.19
2022-11-29T06:30:15.350Z,7.19
2022-11-29T06:33:24.332Z,7.17
2022-11-29T06:36:14.107Z,7.21
2022-11-29T06:38:41.814Z,7.20
2022-11-29T06:41:14.730Z,7.21
2022-11-29T06:43:41.708Z,7.26
2022-11-29T06:46:34.903Z,7.25
2022-11-29T06:49:32.671Z,7.25
2022-11-29T06:52:17.481Z,7.26
2022-11-29T06:54:49.986Z,7.28
2022-11-29T06:57:35.121Z,7.31
2022-11-29T07:00:20.253Z,7.35
2022-11-29T07:03:11.807Z,7.40
2022-11-29T07:05:39.442Z,7.41
2022-11-29T07:08:25.474Z,7.44
2022-11-29T07:10:55.606Z,7.42
2022-11-29T07:13:23.218Z,7.42
2022-11-29T07:16:17.101Z,7.43
2022-11-29T07:18:48.039Z,7.43
2022-11-29T07:21:47.624Z,7.44
2022-11-29T07:24:26.552Z,7.46
2022-11-29T07:27:07.190Z,7.45
2022-11-29T07:29:44.985Z,7.44
2022-11-29T07:32:59.860Z,7.46
2022-11-29T07:35:45.983Z,7.48
2022-11-29T07:38:18.576Z,7.48
2022-11-29T07:40:56.445Z,7.49
2022-11-29T07:43:45.657Z,7.49
2022-11-29T07:46:12.600Z,7.49
2022-11-29T07:48:39.375Z,7.51
2022-11-29T07:51:06.457Z,7.52
2022-11-29T07:53:38.464Z,7.53
2022-11-29T07:56:05.380Z,7.56
2022-11-29T07:58:32.155Z,7.54
2022-11-29T08:00:59.062Z,7.58
2022-11-29T08:03:25.802Z,7.61
2022-11-29T08:05:52.525Z,7.61
2022-11-29T08:08:19.255Z,7.61
2022-11-29T08:10:46.313Z,7.63
2022-11-29T08:13:13.693Z,7.62
2022-11-29T08:15:45.584Z,7.64
2022-11-29T08:18:12.977Z,7.65
2022-11-29T08:20:41.942Z,7.67
2022-11-29T08:23:12.447Z,7.67
2022-11-29T08:25:39.442Z,7.68
2022-11-29T08:28:06.773Z,7.69
2022-11-29T08:30:33.629Z,7.72
2022-11-29T08:33:00.399Z,7.75
2022-11-29T08:35:27.232Z,7.76
2022-11-29T08:37:54.725Z,7.80
2022-11-29T08:40:21.969Z,7.82
2022-11-29T08:42:48.695Z,7.84
2022-11-29T08:45:15.584Z,7.84
2022-11-29T08:47:43.078Z,7.85
2022-11-29T08:50:15.717Z,7.87
2022-11-29T08:53:03.402Z,7.86
2022-11-29T08:55:39.752Z,7.90
2022-11-29T08:58:11.774Z,7.91
2022-11-29T09:00:39.428Z,7.92
2022-11-29T09:03:26.123Z,7.92
2022-11-29T09:05:53.489Z,7.94
2022-11-29T09:08:20.376Z,7.92
2022-11-29T09:10:47.624Z,7.92
2022-11-29T09:13:14.897Z,7.94
2022-11-29T09:15:43.587Z,7.99
2022-11-29T09:18:10.967Z,7.98
2022-11-29T09:20:37.738Z,8.01
2022-11-29T09:23:04.987Z,8.03
2022-11-29T09:25:31.840Z,8.02
2022-11-29T09:28:01.427Z,8.00
2022-11-29T09:30:31.445Z,8.02
2022-11-29T09:33:04.029Z,8.00
2022-11-29T09:35:31.335Z,8.03
2022-11-29T09:37:58.150Z,8.05
2022-11-29T09:40:45.873Z,8.03
2022-11-29T09:43:30.919Z,8.02
2022-11-29T09:46:06.234Z,8.03
2022-11-29T09:48:40.659Z,8.00
2022-11-29T09:51:30.431Z,7.99
2022-11-29T09:54:15.033Z,8.01
2022-11-29T09:56:45.366Z,8.04
2022-11-29T09:59:18.668Z,8.04
2022-11-29T10:01:51.569Z,8.00
2022-11-29T10:04:28.911Z,8.05
2022-11-29T10:07:08.871Z,8.07
2022-11-29T10:09:47.742Z,8.09
2022-11-29T10:12:21.754Z,8.05
2022-11-29T10:14:57.233Z,8.08
2022-11-29T10:17:32.854Z,8.07
2022-11-29T10:20:21.060Z,8.11
2022-11-29T10:22:56.947Z,8.10
2022-11-29T10:25:34.744Z,8.13
2022-11-29T10:28:01.973Z,8.13
2022-11-29T10:30:29.277Z,8.12
2022-11-29T10:33:00.436Z,8.16
2022-11-29T10:35:27.805Z,8.16
2022-11-29T10:38:29.006Z,8.19
2022-11-29T10:40:48.849Z,8.15
2022-11-29T10:43:15.674Z,8.18
2022-11-29T10:45:53.580Z,8.19
2022-11-29T10:48:23.048Z,8.24
2022-11-29T10:50:51.573Z,8.26
2022-11-29T10:53:22.628Z,8.23
2022-11-29T10:56:01.390Z,8.23
2022-11-29T10:58:30.488Z,8.22
2022-11-29T11:01:07.997Z,8.26
2022-11-29T11:03:39.798Z,8.25
2022-11-29T11:06:09.373Z,8.28
2022-11-29T11:08:37.392Z,8.24
2022-11-29T11:11:06.092Z,8.26
2022-11-29T11:13:34.009Z,8.24
2022-11-29T11:16:20.602Z,8.26
2022-11-29T11:18:48.439Z,8.28
2022-11-29T11:21:18.109Z,8.30
2022-11-29T11:24:02.892Z,8.33
2022-11-29T11:26:43.092Z,8.35
2022-11-29T11:29:18.225Z,8.37
2022-11-29T11:31:53.472Z,8.38
2022-11-29T11:34:27.925Z,8.37
2022-11-29T11:37:17.621Z,8.39
2022-11-29T11:39:46.797Z,8.41
2022-11-29T11:42:37.156Z,8.45
2022-11-29T11:45:50.013Z,8.42
2022-11-29T11:48:17.745Z,8.43
2022-11-29T11:50:52.288Z,8.43
2022-11-29T11:53:23.894Z,8.43
2022-11-29T11:55:58.142Z,8.51
2022-11-29T11:58:29.162Z,8.46
2022-11-29T12:01:05.051Z,8.47
2022-11-29T12:03:50.811Z,8.47
2022-11-29T12:06:45.352Z,8.48
2022-11-29T12:09:38.385Z,8.56
2022-11-29T12:12:26.870Z,8.53
2022-11-29T12:14:59.367Z,8.57
2022-11-29T12:17:34.418Z,8.69
2022-11-29T12:20:28.572Z,8.76
2022-11-29T12:23:34.931Z,8.78
2022-11-29T12:26:06.429Z,8.85
2022-11-29T12:28:35.751Z,8.84
2022-11-29T12:31:40.102Z,8.98
2022-11-29T12:34:27.088Z,9.04
2022-11-29T12:36:57.407Z,8.96
2022-11-29T12:39:47.593Z,8.97
2022-11-29T12:42:36.069Z,8.95
2022-11-29T12:45:11.411Z,8.96
2022-11-29T12:47:53.013Z,9.04
2022-11-29T12:50:30.114Z,9.06
2022-11-29T12:53:18.494Z,9.06
2022-11-29T12:55:56.088Z,9.09
2022-11-29T12:58:25.449Z,9.02
2022-11-29T13:01:21.506Z,9.05
2022-11-29T13:04:21.327Z,9.14
2022-11-29T13:07:04.685Z,9.07
2022-11-29T13:10:18.198Z,9.04
2022-11-29T13:12:55.436Z,9.13
2022-11-29T13:15:28.307Z,9.10
2022-11-29T13:18:06.138Z,9.08
2022-11-29T13:20:39.719Z,9.05
2022-11-29T13:26:37.837Z,9.06
2022-11-29T13:29:06.418Z,9.02
2022-11-29T13:31:36.034Z,9.05
2022-11-29T13:34:24.878Z,9.02
2022-11-29T13:37:15.267Z,9.00
2022-11-29T13:39:55.599Z,8.99
2022-11-29T13:42:45.443Z,8.94
2022-11-29T13:45:52.485Z,8.89
2022-11-29T13:48:45.859Z,8.85
2022-11-29T13:51:34.249Z,8.85
2022-11-29T13:54:04.577Z,8.84
2022-11-29T13:56:46.022Z,8.84
2022-11-29T13:59:28.048Z,8.74
2022-11-29T14:01:55.116Z,8.75
2022-11-29T14:04:24.772Z,8.71
2022-11-29T14:07:02.887Z,8.69
2022-11-29T14:09:36.083Z,8.62
2022-11-29T14:12:41.804Z,8.57
2022-11-29T14:15:11.228Z,8.58
2022-11-29T14:17:57.915Z,8.51
2022-11-29T14:20:28.655Z,8.50
2022-11-29T14:23:04.562Z,8.50
2022-11-29T14:25:52.756Z,8.46
2022-11-29T14:28:22.552Z,8.41
2022-11-29T14:30:57.479Z,8.36
2022-11-29T14:33:35.241Z,8.34
2022-11-29T14:36:17.667Z,8.22
2022-11-29T14:39:05.611Z,8.22
2022-11-29T14:42:01.323Z,8.20
2022-11-29T14:44:33.339Z,8.19
2022-11-29T14:47:13.866Z,8.16
2022-11-29T14:49:45.172Z,8.16
2022-11-29T14:52:14.874Z,8.18
2022-11-29T14:55:16.723Z,8.10
2022-11-29T14:58:01.444Z,8.11
2022-11-29T15:00:42.132Z,8.01
2022-11-29T15:03:33.223Z,8.02
2022-11-29T15:06:10.165Z,7.98
2022-11-29T15:09:06.018Z,7.96
2022-11-29T15:11:35.780Z,7.91
2022-11-29T15:14:36.656Z,7.83
2022-11-29T15:17:44.739Z,7.81
2022-11-29T15:20:48.772Z,7.79
2022-11-29T15:23:18.643Z,7.69
2022-11-29T15:25:54.197Z,7.64
2022-11-29T15:28:26.814Z,7.62
2022-11-29T15:31:06.428Z,7.58
2022-11-29T15:33:36.333Z,7.53
2022-11-29T15:36:06.551Z,7.50
2022-11-29T15:38:46.256Z,7.45
2022-11-29T15:41:27.085Z,7.35
2022-11-29T15:44:00.288Z,7.32
2022-11-29T15:46:29.818Z,7.23
2022-11-29T15:49:16.408Z,7.19
2022-11-29T15:51:44.983Z,7.17
2022-11-29T15:54:18.628Z,7.15
2022-11-29T15:56:52.475Z,7.10
2022-11-29T15:59:25.352Z,7.10
2022-11-29T16:01:54.024Z,7.02
2022-11-29T16:04:22.133Z,7.03
2022-11-29T16:06:50.286Z,6.98
2022-11-29T16:09:22.873Z,6.99
2022-11-29T16:11:49.661Z,6.99
2022-11-29T16:14:22.370Z,6.96
2022-11-29T16:16:52.730Z,6.97
2022-11-29T16:19:30.975Z,7.01
2022-11-29T16:22:12.975Z,7.04
2022-11-29T16:24:48.333Z,6.98
2022-11-29T16:27:15.262Z,6.96
2022-11-29T16:29:45.290Z,6.90
2022-11-29T16:32:36.667Z,6.92
2022-11-29T16:35:21.878Z,6.95
2022-11-29T16:37:49.150Z,7.01
2022-11-29T16:40:28.179Z,6.97
2022-11-29T16:43:24.165Z,6.93
2022-11-29T16:46:30.347Z,6.99
2022-11-29T16:48:59.315Z,6.89
2022-11-29T16:51:43.860Z,6.93
2022-11-29T16:54:33.987Z,6.95
2022-11-29T16:57:05.323Z,6.94
2022-11-29T16:59:32.812Z,6.91
2022-11-29T17:01:59.532Z,6.92
2022-11-29T17:04:26.754Z,6.93
2022-11-29T17:06:56.760Z,6.95
2022-11-29T17:09:34.317Z,6.91
2022-11-29T17:12:02.522Z,6.95
2022-11-29T17:14:29.703Z,6.95
2022-11-29T17:16:56.508Z,6.92
2022-11-29T17:19:24.270Z,6.91
2022-11-29T17:21:52.915Z,6.84
2022-11-29T17:24:21.809Z,6.80
2022-11-29T17:26:49.198Z,6.79
2022-11-29T17:29:16.821Z,6.75
2022-11-29T17:31:47.021Z,6.73
2022-11-29T17:34:13.851Z,6.70
2022-11-29T17:36:40.733Z,6.71
2022-11-29T17:39:08.045Z,6.77
2022-11-29T17:41:34.983Z,6.74
2022-11-29T17:44:02.602Z,6.75
2022-11-29T17:46:31.864Z,6.69
2022-11-29T17:49:00.497Z,6.67
2022-11-29T17:54:14.273Z,6.74
2022-11-29T17:56:41.046Z,6.67
2022-11-29T17:59:07.782Z,6.70
2022-11-29T18:01:36.324Z,6.75
2022-11-29T18:04:05.500Z,6.72
2022-11-29T18:06:38.608Z,6.72
2022-11-29T18:09:07.682Z,6.71
2022-11-29T18:11:46.422Z,6.74
2022-11-29T18:14:20.987Z,6.76
2022-11-29T18:16:47.948Z,6.75
2022-11-29T18:19:17.281Z,6.73
2022-11-29T18:21:44.517Z,6.79
2022-11-29T18:24:11.570Z,6.80
2022-11-29T18:26:39.177Z,6.76
2022-11-29T18:29:07.427Z,6.75
2022-11-29T18:31:36.399Z,6.79
2022-11-29T18:34:09.886Z,6.79
2022-11-29T18:36:44.100Z,6.79
2022-11-29T18:39:14.266Z,6.82
2022-11-29T18:41:43.363Z,6.81
2022-11-29T18:44:12.849Z,6.83
2022-11-29T18:46:41.735Z,6.84
2022-11-29T18:49:10.866Z,6.84
2022-11-29T18:51:39.017Z,6.82
2022-11-29T18:54:06.800Z,6.85
2022-11-29T18:56:36.970Z,6.84
2022-11-29T18:59:09.733Z,6.84
2022-11-29T19:01:41.112Z,6.82
2022-11-29T19:04:13.925Z,6.87
2022-11-29T19:06:41.579Z,6.83
2022-11-29T19:09:15.414Z,6.82
2022-11-29T19:11:42.057Z,6.86
2022-11-29T19:14:11.811Z,6.82
2022-11-29T19:16:41.600Z,6.81
2022-11-29T19:19:08.440Z,6.80
2022-11-29T19:21:35.260Z,6.78
2022-11-29T19:24:05.560Z,6.81
2022-11-29T19:26:33.006Z,6.80
2022-11-29T19:29:01.225Z,6.77
2022-11-29T19:31:28.857Z,6.74
2022-11-29T19:33:56.455Z,6.75
2022-11-29T19:36:26.190Z,6.72
2022-11-29T19:38:54.430Z,6.65
2022-11-29T19:41:26.654Z,6.64
2022-11-29T19:43:55.877Z,6.66
2022-11-29T19:46:31.265Z,6.69
2022-11-29T19:48:59.302Z,6.63
2022-11-29T19:51:27.586Z,6.62
2022-11-29T19:53:56.080Z,6.64
2022-11-29T19:56:23.637Z,6.61
2022-11-29T19:58:51.136Z,6.64
2022-11-29T20:01:35.946Z,6.64
2022-11-29T20:04:06.836Z,6.64
2022-11-29T20:06:33.708Z,6.63
2022-11-29T20:09:00.544Z,6.63
2022-11-29T20:11:27.361Z,6.62
2022-11-29T20:13:57.813Z,6.63
2022-11-29T20:16:25.384Z,6.66
2022-11-29T20:18:53.112Z,6.66
2022-11-29T20:21:25.360Z,6.64
2022-11-29T20:24:03.486Z,6.61
2022-11-29T20:26:32.851Z,6.67
2022-11-29T20:29:00.278Z,6.63
2022-11-29T20:31:27.895Z,6.63
2022-11-29T20:33:57.563Z,6.63
2022-11-29T20:37:07.372Z,6.67
2022-11-29T20:39:55.275Z,6.64
2022-11-29T20:43:11.796Z,6.68
2022-11-29T20:45:38.787Z,6.69
2022-11-29T20:48:18.405Z,6.70
2022-11-29T20:50:52.973Z,6.73
2022-11-29T20:53:40.503Z,6.71
2022-11-29T20:56:08.298Z,6.71
2022-11-29T20:58:35.390Z,6.74
2022-11-29T21:01:02.553Z,6.76
2022-11-29T21:03:30.242Z,6.77
2022-11-29T21:06:01.036Z,6.74
2022-11-29T21:08:27.971Z,6.72
2022-11-29T21:11:00.814Z,6.75
2022-11-29T21:13:27.805Z,6.74
2022-11-29T21:15:54.855Z,6.75
2022-11-29T21:18:26.750Z,6.74
2022-11-29T21:21:22.649Z,6.75
2022-11-29T21:24:04.700Z,6.75
2022-11-29T21:26:42.494Z,6.74
2022-11-29T21:29:09.336Z,6.71
2022-11-29T21:31:36.623Z,6.74
2022-11-29T21:34:04.123Z,6.72
2022-11-29T21:36:31.009Z,6.74
2022-11-29T21:39:00.955Z,6.75
2022-11-29T21:41:31.766Z,6.77
2022-11-29T21:44:06.821Z,6.76
2022-11-29T21:46:34.679Z,6.76
2022-11-29T21:49:01.500Z,6.75
2022-11-29T21:51:28.154Z,6.74
2022-11-29T21:53:54.795Z,6.75
2022-11-29T21:56:21.555Z,6.80
2022-11-29T21:58:48.264Z,6.74
2022-11-29T22:01:18.129Z,6.74
2022-11-29T22:03:45.722Z,6.72
2022-11-29T22:06:20.456Z,6.71
2022-11-29T22:08:48.578Z,6.74
2022-11-29T22:11:34.467Z,6.72
2022-11-29T22:14:14.663Z,6.70
2022-11-29T22:16:53.621Z,6.73
2022-11-29T22:19:32.067Z,6.78
2022-11-29T22:22:03.027Z,6.78
2022-11-29T22:24:32.238Z,6.77
2022-11-29T22:26:59.216Z,6.76
2022-11-29T22:29:26.050Z,6.78
2022-11-29T22:31:54.724Z,6.77
2022-11-29T22:34:22.957Z,6.74
2022-11-29T22:36:49.690Z,6.72
2022-11-29T22:39:16.497Z,6.71
2022-11-29T22:41:43.549Z,6.72
2022-11-29T22:44:10.423Z,6.72
2022-11-29T22:46:39.400Z,6.72
2022-11-29T22:49:06.232Z,6.70
2022-11-29T22:51:35.686Z,6.71
2022-11-29T22:54:05.415Z,6.69
2022-11-29T22:56:34.536Z,6.67
2022-11-29T22:59:01.579Z,6.68
2022-11-29T23:01:30.334Z,6.68
2022-11-29T23:03:59.140Z,6.69
2022-11-29T23:06:34.480Z,6.69
2022-11-29T23:09:10.662Z,6.70
2022-11-29T23:11:38.303Z,6.75
2022-11-29T23:14:05.007Z,6.69
2022-11-29T23:16:32.977Z,6.71
2022-11-29T23:19:00.590Z,6.70
2022-11-29T23:21:36.611Z,6.67
2022-11-29T23:24:03.954Z,6.71
2022-11-29T23:26:42.701Z,6.67
2022-11-29T23:29:13.638Z,6.65
2022-11-29T23:31:40.956Z,6.70
2022-11-29T23:34:08.588Z,6.69
2022-11-29T23:36:35.548Z,6.65
2022-11-29T23:39:04.348Z,6.63
2022-11-29T23:41:31.085Z,6.64
2022-11-29T23:43:59.719Z,6.62
2022-11-29T23:46:26.513Z,6.67
2022-11-29T23:48:53.367Z,6.69
2022-11-29T23:51:20.322Z,6.64
2022-11-29T23:53:51.401Z,6.65
2022-11-29T23:56:18.423Z,6.63
2022-11-29T23:58:45.541Z,6.69
